Time;durP1;ratioP1;P1;durP2;ratioP2;P2;SDS_P1;SDS_P2;PMS_P1;PMS_P2;Temp;Humidity;BMP_temperature;BMP_pressure;BME280_temperature;BME280_humidity;BME280_pressure;Samples;Min_cycle;Max_cycle;Signal;HPM_P1;HPM_P2
2023/01/23 00:01:29;;;;;;;0.93;0.93;;;;;;;22.61;32.13;99910.97;1859262;75;28141;-66
2023/01/23 00:04:18;;;;;;;0.90;0.90;;;;;;;22.60;32.08;99910.62;1869415;75;28665;-64
2023/01/23 00:07:06;;;;;;;1.07;1.07;;;;;;;22.59;32.13;99918.55;1871901;75;28175;-64
2023/01/23 00:09:54;;;;;;;0.90;0.90;;;;;;;22.59;32.14;99907.59;1874381;75;28146;-67
2023/01/23 00:12:53;;;;;;;0.80;0.80;;;;;;;22.61;32.12;99908.23;1871576;75;28161;-65
2023/01/23 00:15:39;;;;;;;1.00;1.00;;;;;;;22.60;32.10;99907.39;1878008;75;28074;-64
2023/01/23 00:18:27;;;;;;;0.80;0.80;;;;;;;22.61;32.08;99915.08;1865585;75;28064;-65
2023/01/23 00:21:19;;;;;;;1.00;1.00;;;;;;;22.59;32.09;99902.11;1894454;75;28183;-64
2023/01/23 00:24:09;;;;;;;0.80;0.80;;;;;;;22.59;32.14;99908.95;1880980;75;28289;-65
2023/01/23 00:26:57;;;;;;;0.90;0.90;;;;;;;22.58;32.09;99911.38;1882987;75;28098;-65
2023/01/23 00:29:46;;;;;;;1.05;0.95;;;;;;;22.61;32.08;99906.30;1877338;74;37656;-66
2023/01/23 00:32:34;;;;;;;0.82;0.82;;;;;;;22.59;32.13;99900.74;1861979;75;28133;-66
2023/01/23 00:35:23;;;;;;;0.93;0.93;;;;;;;22.57;32.16;99900.10;1893367;74;28168;-66
2023/01/23 00:38:13;;;;;;;0.95;0.95;;;;;;;22.58;32.10;99881.26;1899711;75;28169;-66
2023/01/23 00:41:02;;;;;;;0.95;0.95;;;;;;;22.59;32.13;99888.42;1878580;75;28131;-64
2023/01/23 00:43:52;;;;;;;0.90;0.90;;;;;;;22.58;32.09;99879.89;1870526;75;28254;-65
2023/01/23 00:46:40;;;;;;;1.00;1.00;;;;;;;22.59;32.10;99888.42;1868578;75;28175;-64
2023/01/23 00:49:30;;;;;;;0.95;0.95;;;;;;;22.55;32.13;99877.59;1869525;75;28164;-65
2023/01/23 00:52:20;;;;;;;0.90;0.90;;;;;;;22.58;32.08;99879.89;1865793;75;28145;-64
2023/01/23 00:55:10;;;;;;;0.82;0.82;;;;;;;22.59;32.07;99884.31;1898977;74;28091;-65
2023/01/23 00:57:58;;;;;;;0.88;0.88;;;;;;;22.57;32.07;99889.99;1863257;75;28215;-64
2023/01/23 01:00:48;;;;;;;1.10;0.90;;;;;;;22.58;32.06;99894.95;1884388;74;28183;-65
2023/01/23 01:03:37;;;;;;;0.80;0.80;;;;;;;22.55;32.11;99891.28;1857967;75;28212;-65
2023/01/23 01:06:26;;;;;;;1.00;1.00;;;;;;;22.54;32.13;99886.33;1880763;75;28163;-66
2023/01/23 01:09:14;;;;;;;0.95;0.95;;;;;;;22.56;32.09;99884.75;1887088;75;28698;-67
2023/01/23 01:12:02;;;;;;;0.95;0.93;;;;;;;22.55;32.09;99893.49;1883685;75;28179;-65
2023/01/23 01:14:51;;;;;;;1.20;1.10;;;;;;;22.54;32.09;99884.15;1873657;75;28182;-65
2023/01/23 01:17:40;;;;;;;1.30;1.07;;;;;;;22.54;32.08;99880.04;1856264;77;28185;-64
2023/01/23 01:20:29;;;;;;;1.00;1.00;;;;;;;22.52;32.14;99880.80;1890589;75;28161;-64
2023/01/23 01:23:19;;;;;;;1.00;1.00;;;;;;;22.53;32.10;99879.72;1864441;75;28153;-65
2023/01/23 01:26:08;;;;;;;0.90;0.90;;;;;;;22.53;32.09;99885.20;1870925;75;28087;-65
2023/01/23 01:28:57;;;;;;;1.27;1.17;;;;;;;22.54;32.08;99880.04;1880623;75;28111;-65
2023/01/23 01:31:45;;;;;;;0.90;0.90;;;;;;;22.54;32.03;99890.44;1873132;75;28177;-65
2023/01/23 01:34:33;;;;;;;0.70;0.70;;;;;;;22.54;32.07;99890.98;1861820;75;28141;-65
2023/01/23 01:37:24;;;;;;;0.95;0.95;;;;;;;22.56;32.02;99884.75;1874308;75;28096;-66
2023/01/23 01:40:19;;;;;;;1.00;1.00;;;;;;;22.53;32.06;99879.20;1884322;75;28072;-64
2023/01/23 01:43:10;;;;;;;1.00;1.00;;;;;;;22.52;32.03;99876.70;1872756;75;28114;-65
2023/01/23 01:46:13;;;;;;;0.90;0.90;;;;;;;22.48;32.12;99879.55;1875126;75;28145;-64
2023/01/23 01:49:10;;;;;;;1.10;1.00;;;;;;;22.47;32.11;99876.00;1878212;75;28115;-65
2023/01/23 01:52:06;;;;;;;0.80;0.80;;;;;;;22.45;32.13;99878.09;1883706;74;28207;-65
2023/01/23 01:55:02;;;;;;;0.90;0.90;;;;;;;22.44;32.13;99876.97;1892408;74;28137;-67
2023/01/23 01:57:56;;;;;;;0.90;0.90;;;;;;;22.44;32.11;99878.33;1890728;75;28066;-67
2023/01/23 02:00:41;;;;;;;0.98;0.98;;;;;;;22.43;32.13;99881.59;1900890;75;28109;-65
2023/01/23 02:03:30;;;;;;;0.85;0.85;;;;;;;22.36;32.14;99875.86;1873524;75;28149;-64
2023/01/23 02:06:19;;;;;;;0.90;0.90;;;;;;;22.45;32.10;99892.34;1868764;74;28133;-65
2023/01/23 02:09:26;;;;;;;0.90;0.90;;;;;;;22.47;32.09;99886.95;1865209;75;28250;-65
2023/01/23 02:12:15;;;;;;;1.07;1.07;;;;;;;22.50;32.00;99885.11;1883962;75;28148;-64
2023/01/23 02:15:06;;;;;;;1.10;0.90;;;;;;;22.46;32.09;99889.37;1882789;75;28118;-64
2023/01/23 02:17:55;;;;;;;0.90;0.90;;;;;;;22.46;32.05;99891.27;1874026;75;28139;-65
2023/01/23 02:20:44;;;;;;;0.85;0.85;;;;;;;22.44;32.13;99883.28;1889686;75;28146;-66
2023/01/23 02:23:44;;;;;;;0.80;0.80;;;;;;;22.47;32.07;99891.06;1872399;75;28144;-66
2023/01/23 02:26:45;;;;;;;0.90;0.90;;;;;;;22.39;32.07;99876.80;1883446;75;28178;-64
2023/01/23 02:29:47;;;;;;;1.00;1.00;;;;;;;22.41;32.14;99896.56;1885765;75;28316;-64
2023/01/23 02:32:37;;;;;;;1.07;1.07;;;;;;;22.41;32.16;99902.03;1896707;75;28194;-67
2023/01/23 02:35:29;;;;;;;0.80;0.80;;;;;;;22.38;32.15;99904.69;1890830;75;28158;-65
2023/01/23 02:38:22;;;;;;;1.07;1.00;;;;;;;22.40;32.16;99909.44;1885265;75;29157;-65
2023/01/23 02:41:13;;;;;;;0.90;0.90;;;;;;;22.42;32.10;99903.73;1879994;75;28190;-65
2023/01/23 02:44:05;;;;;;;0.90;0.90;;;;;;;22.41;32.10;99901.52;1886648;75;28222;-65
2023/01/23 02:46:56;;;;;;;0.80;0.80;;;;;;;22.40;32.12;99901.75;1898631;75;28122;-65
2023/01/23 02:49:46;;;;;;;1.00;1.00;;;;;;;22.42;32.10;99894.15;1888231;75;28130;-65
2023/01/23 02:52:34;;;;;;;0.88;0.88;;;;;;;22.39;32.09;99889.95;1890344;74;28156;-65
2023/01/23 02:55:31;;;;;;;0.90;0.90;;;;;;;22.40;32.09;99894.91;1877553;75;28256;-65
2023/01/23 03:01:21;;;;;;;0.90;0.90;;;;;;;22.41;32.09;99876.88;1840290;76;28264;-65
2023/01/23 03:04:09;;;;;;;1.00;1.00;;;;;;;22.38;32.09;99871.03;1872602;75;28155;-65
2023/01/23 03:06:58;;;;;;;0.88;0.88;;;;;;;22.38;32.11;99868.30;1887699;75;28163;-65
2023/01/23 03:09:47;;;;;;;0.82;0.82;;;;;;;22.38;32.10;99866.92;1868422;75;28210;-65
2023/01/23 03:12:44;;;;;;;0.90;0.90;;;;;;;22.37;32.08;99868.81;1888873;75;28059;-64
2023/01/23 03:15:26;;;;;;;0.95;0.95;;;;;;;22.35;32.08;99872.31;1874416;74;28158;-65
2023/01/23 03:18:16;;;;;;;0.90;0.90;;;;;;;22.38;32.09;99879.24;1888424;74;28167;-64
2023/01/23 03:21:07;;;;;;;0.90;0.90;;;;;;;22.39;32.03;99875.42;1880698;75;28063;-65
2023/01/23 03:23:55;;;;;;;0.90;0.90;;;;;;;22.41;32.05;99865.93;1893431;75;28134;-65
2023/01/23 03:26:46;;;;;;;0.93;0.93;;;;;;;22.41;32.00;99859.09;1895130;75;28176;-65
2023/01/23 03:32:44;;;;;;;0.80;0.80;;;;;;;22.36;32.04;99847.13;1875467;75;28271;-64
2023/01/23 03:35:34;;;;;;;0.90;0.90;;;;;;;22.33;32.11;99847.59;1890918;75;28115;-65
2023/01/23 03:38:23;;;;;;;0.80;0.80;;;;;;;22.31;32.07;99851.09;1868601;75;28208;-65
2023/01/23 03:41:24;;;;;;;0.87;0.87;;;;;;;22.35;32.06;99853.16;1868239;76;28146;-66
2023/01/23 03:44:13;;;;;;;0.90;0.90;;;;;;;22.37;32.02;99857.02;1879307;74;28140;-64
2023/01/23 03:47:03;;;;;;;0.95;0.95;;;;;;;22.36;32.00;99844.39;1896093;75;28187;-65
2023/01/23 03:49:52;;;;;;;0.90;0.90;;;;;;;22.35;32.03;99853.68;1873263;75;28138;-65
2023/01/23 03:52:41;;;;;;;0.75;0.75;;;;;;;22.36;32.02;99853.97;1873744;74;28278;-64
2023/01/23 03:55:30;;;;;;;0.80;0.80;;;;;;;22.35;31.98;99855.89;1895238;74;28127;-65
2023/01/23 03:58:19;;;;;;;0.80;0.80;;;;;;;22.33;31.96;99855.80;1887475;74;29074;-65
2023/01/23 04:01:09;;;;;;;1.30;1.07;;;;;;;22.31;31.98;99848.36;1829315;77;28327;-64
2023/01/23 04:03:59;;;;;;;0.90;0.90;;;;;;;22.32;32.02;99853.59;1893532;75;28090;-64
2023/01/23 04:06:48;;;;;;;1.00;1.00;;;;;;;22.33;32.02;99853.07;1881649;74;28051;-64
2023/01/23 04:09:37;;;;;;;0.83;0.83;;;;;;;22.33;31.97;99857.17;1870903;75;28212;-65
2023/01/23 04:12:26;;;;;;;0.80;0.80;;;;;;;22.32;31.99;99852.23;1887748;74;28106;-65
2023/01/23 04:15:15;;;;;;;0.70;0.70;;;;;;;22.32;31.97;99851.38;1892844;75;28095;-64
2023/01/23 04:18:05;;;;;;;0.80;0.80;;;;;;;22.32;31.99;99853.59;1881864;75;28063;-64
2023/01/23 04:20:55;;;;;;;0.80;0.80;;;;;;;22.29;32.02;99852.66;1892907;75;28135;-65
2023/01/23 04:23:44;;;;;;;0.80;0.80;;;;;;;22.30;31.96;99855.72;1878655;75;28241;-65
2023/01/23 04:26:34;;;;;;;0.78;0.78;;;;;;;22.31;31.96;99860.11;1873282;75;28056;-66
2023/01/23 04:29:23;;;;;;;0.80;0.80;;;;;;;22.32;31.97;99853.59;1876857;75;28118;-66
2023/01/23 04:32:12;;;;;;;1.10;1.00;;;;;;;22.33;31.97;99853.91;1899554;75;28162;-66
2023/01/23 04:35:02;;;;;;;0.75;0.75;;;;;;;22.31;31.96;99850.54;1892581;75;28195;-64
2023/01/23 04:37:52;;;;;;;1.00;1.00;;;;;;;22.29;31.99;99840.34;1874240;75;28184;-64
2023/01/23 04:40:41;;;;;;;0.75;0.75;;;;;;;22.29;31.99;99847.72;1875371;75;28241;-65
2023/01/23 04:43:30;;;;;;;0.78;0.78;;;;;;;22.37;31.95;99834.61;1889814;75;28128;-64
2023/01/23 04:46:18;;;;;;;0.88;0.88;;;;;;;22.46;31.85;99841.46;1877971;75;28234;-65
2023/01/23 04:49:15;;;;;;;0.90;0.90;;;;;;;22.49;31.77;99842.91;1885338;75;28203;-65
2023/01/23 04:52:04;;;;;;;1.00;1.00;;;;;;;22.50;31.71;99850.05;1882099;75;28609;-65
2023/01/23 04:54:54;;;;;;;0.80;0.80;;;;;;;22.47;31.67;99845.89;1897769;75;28154;-65
2023/01/23 04:57:43;;;;;;;1.05;0.95;;;;;;;22.47;31.70;99850.52;1858034;75;28282;-65
2023/01/23 05:00:36;;;;;;;1.00;1.00;;;;;;;22.47;31.66;99843.67;1830869;76;28314;-66
2023/01/23 05:03:24;;;;;;;1.00;1.00;;;;;;;22.46;31.66;99841.98;1852979;76;28230;-65
2023/01/23 05:06:13;;;;;;;1.27;0.98;;;;;;;22.45;31.64;99842.52;1859906;76;28171;-66
2023/01/23 05:09:01;;;;;;;0.90;0.90;;;;;;;22.45;31.64;99840.33;1849571;76;28190;-66
2023/01/23 05:11:55;;;;;;;0.90;0.90;;;;;;;22.41;31.65;99831.72;1843571;76;28188;-66
2023/01/23 05:14:44;;;;;;;0.80;0.80;;;;;;;22.38;31.67;99836.27;1838815;76;28675;-65
2023/01/23 05:17:33;;;;;;;0.90;0.90;;;;;;;22.37;31.67;99831.87;1835400;76;28299;-64
2023/01/23 05:20:23;;;;;;;0.93;0.93;;;;;;;22.36;31.67;99831.55;1849762;76;28174;-65
2023/01/23 05:23:12;;;;;;;1.00;1.00;;;;;;;22.35;31.72;99837.26;1858042;76;28265;-65
2023/01/23 05:26:02;;;;;;;0.80;0.80;;;;;;;22.34;31.65;99835.56;1839011;76;28172;-64
2023/01/23 05:28:51;;;;;;;0.90;0.90;;;;;;;22.34;31.69;99844.62;1857403;76;27853;-64
2023/01/23 05:31:41;;;;;;;0.88;0.88;;;;;;;22.33;31.68;99839.39;1846084;76;28145;-64
2023/01/23 05:34:38;;;;;;;1.13;1.10;;;;;;;22.31;31.71;99836.04;1806784;78;28236;-65
2023/01/23 05:37:28;;;;;;;0.80;0.80;;;;;;;22.29;31.79;99844.98;1842013;76;28263;-65
2023/01/23 05:40:19;;;;;;;0.90;0.90;;;;;;;22.27;31.81;99843.00;1827361;78;28231;-64
2023/01/23 05:43:25;;;;;;;0.88;0.88;;;;;;;22.27;31.82;99841.63;1833839;77;28177;-64
2023/01/23 05:46:31;;;;;;;1.20;1.00;;;;;;;22.25;31.84;99838.28;1845065;76;28200;-64
2023/01/23 05:49:20;;;;;;;0.93;0.93;;;;;;;22.23;31.88;99841.78;1840780;76;28216;-64
2023/01/23 05:52:09;;;;;;;1.02;1.00;;;;;;;22.24;31.86;99836.07;1851091;76;28207;-65
2023/01/23 05:54:58;;;;;;;1.00;1.00;;;;;;;22.23;31.87;99837.67;1857480;76;28286;-64
2023/01/23 05:57:46;;;;;;;0.87;0.87;;;;;;;22.22;31.86;99834.09;1855343;75;28235;-64
2023/01/23 06:00:55;;;;;;;1.05;1.00;;;;;;;22.24;31.85;99822.95;1810015;77;28224;-65
2023/01/23 06:04:01;;;;;;;1.00;1.00;;;;;;;22.20;31.88;99828.53;1800294;77;28412;-65
2023/01/23 06:06:54;;;;;;;0.80;0.80;;;;;;;22.17;31.93;99824.91;1878299;75;28118;-65
2023/01/23 06:09:44;;;;;;;1.20;1.20;;;;;;;22.17;31.92;99844.05;1881667;75;28067;-65
2023/01/23 06:12:32;;;;;;;1.75;1.65;;;;;;;22.12;30.94;99830.20;1886221;75;28140;-64
2023/01/23 06:15:21;;;;;;;1.47;1.40;;;;;;;22.03;29.16;99824.99;1872265;75;28337;-65
2023/01/23 06:18:11;;;;;;;1.30;1.30;;;;;;;21.91;27.84;99815.83;1871954;75;28208;-66
2023/01/23 06:21:01;;;;;;;1.10;1.10;;;;;;;21.94;27.94;99814.02;1878266;75;28171;-67
2023/01/23 06:23:49;;;;;;;1.45;1.10;;;;;;;21.97;28.38;99812.75;1871039;75;28205;-66
2023/01/23 06:26:38;;;;;;;1.03;1.03;;;;;;;21.97;28.67;99824.53;1872115;75;28093;-66
2023/01/23 06:29:27;;;;;;;1.25;1.25;;;;;;;21.95;28.84;99823.08;1863874;75;28077;-67
2023/01/23 06:32:16;;;;;;;1.05;1.05;;;;;;;21.90;29.13;99837.42;1877256;74;28231;-67
2023/01/23 06:35:06;;;;;;;1.07;1.07;;;;;;;21.87;29.36;99833.75;1868084;75;28195;-67
2023/01/23 06:37:56;;;;;;;1.05;1.05;;;;;;;21.88;29.45;99827.76;1872293;75;28253;-67
2023/01/23 06:40:45;;;;;;;1.00;1.00;;;;;;;21.89;29.63;99828.89;1880625;75;33172;-66
2023/01/23 06:43:44;;;;;;;1.02;1.02;;;;;;;21.93;29.76;99831.52;1829686;77;28259;-66
2023/01/23 06:46:34;;;;;;;0.80;0.80;;;;;;;21.96;29.83;99829.68;1872759;75;28215;-66
2023/01/23 06:49:22;;;;;;;1.10;1.10;;;;;;;21.99;29.85;99838.81;1876160;75;28150;-66
2023/01/23 06:52:11;;;;;;;1.10;1.10;;;;;;;22.02;29.90;99833.44;1875182;75;28101;-67
2023/01/23 06:55:00;;;;;;;1.07;1.00;;;;;;;22.07;29.87;99834.13;1873196;75;28204;-67
2023/01/23 06:57:48;;;;;;;1.23;1.13;;;;;;;22.07;29.90;99839.61;1855977;75;28374;-65
2023/01/23 07:00:38;;;;;;;1.07;1.00;;;;;;;22.11;29.95;99840.83;1843371;77;28162;-65
2023/01/23 07:03:27;;;;;;;1.00;1.00;;;;;;;22.11;29.97;99847.66;1818254;77;28249;-66
2023/01/23 07:06:17;;;;;;;0.78;0.78;;;;;;;22.04;30.03;99838.15;1823851;77;28255;-67
2023/01/23 07:09:05;;;;;;;1.05;1.00;;;;;;;22.11;30.08;99850.40;1839386;77;28628;-65
2023/01/23 07:11:54;;;;;;;1.00;1.00;;;;;;;22.12;30.08;99850.20;1822765;77;28175;-66
2023/01/23 07:14:43;;;;;;;1.02;1.00;;;;;;;22.12;30.15;99858.93;1821285;77;28272;-67
2023/01/23 07:17:32;;;;;;;1.32;1.00;;;;;;;22.14;30.13;99858.17;1841369;77;28305;-67
2023/01/23 07:20:20;;;;;;;1.00;1.00;;;;;;;22.12;30.21;99850.20;1827102;77;28213;-66
2023/01/23 07:23:10;;;;;;;0.90;0.90;;;;;;;22.12;30.26;99852.94;1818513;77;28253;-66
2023/01/23 07:26:02;;;;;;;1.00;1.00;;;;;;;22.12;30.31;99852.94;1837155;77;28322;-66
2023/01/23 07:28:50;;;;;;;0.90;0.90;;;;;;;22.14;30.31;99855.44;1810353;78;28324;-65
2023/01/23 07:31:38;;;;;;;1.17;1.07;;;;;;;22.14;30.37;99860.39;1825113;77;28221;-66
2023/01/23 07:34:28;;;;;;;1.10;1.10;;;;;;;22.14;30.33;99852.70;1821371;77;28184;-65
2023/01/23 07:37:16;;;;;;;1.00;1.00;;;;;;;22.15;30.36;99850.29;1838588;77;29205;-66
2023/01/23 07:40:06;;;;;;;1.17;1.17;;;;;;;22.15;30.41;99855.20;1829896;77;28219;-66
2023/01/23 07:42:56;;;;;;;1.00;1.00;;;;;;;22.16;30.39;99854.67;1822191;75;28290;-66
2023/01/23 07:45:45;;;;;;;0.90;0.90;;;;;;;22.15;30.46;99856.57;1832028;77;28415;-67
2023/01/23 07:48:33;;;;;;;0.90;0.90;;;;;;;22.15;30.52;99855.76;1832195;77;28314;-66
2023/01/23 07:51:22;;;;;;;0.90;0.90;;;;;;;22.14;30.55;99856.80;1811802;78;38655;-66
2023/01/23 07:54:10;;;;;;;0.80;0.80;;;;;;;22.14;30.55;99850.81;1823147;77;28640;-66
2023/01/23 07:56:59;;;;;;;1.20;1.20;;;;;;;22.16;30.56;99853.31;1841418;77;28249;-66
2023/01/23 07:59:48;;;;;;;0.98;0.98;;;;;;;22.15;30.58;99867.52;1859492;76;28275;-66
2023/01/23 08:02:37;;;;;;;0.90;0.90;;;;;;;22.12;30.64;99862.52;1882631;75;28297;-66
2023/01/23 08:05:26;;;;;;;0.90;0.90;;;;;;;22.13;30.67;99860.59;1875019;75;28193;-66
2023/01/23 08:08:15;;;;;;;1.00;1.00;;;;;;;22.15;30.66;99863.97;1874671;75;28173;-66
2023/01/23 08:11:11;;;;;;;1.03;0.90;;;;;;;22.13;30.70;99871.53;1890604;74;28131;-66
2023/01/23 08:14:00;;;;;;;0.90;0.90;;;;;;;22.16;30.73;99866.98;1885526;75;28194;-66
2023/01/23 08:16:52;;;;;;;1.00;1.00;;;;;;;22.14;30.72;99871.85;1900161;75;28081;-66
2023/01/23 08:19:41;;;;;;;0.85;0.85;;;;;;;22.14;30.74;99875.95;1878953;75;28098;-66
2023/01/23 08:22:29;;;;;;;0.80;0.80;;;;;;;22.17;30.75;99874.16;1878745;75;32070;-66
2023/01/23 08:25:18;;;;;;;0.80;0.80;;;;;;;22.15;30.81;99870.81;1885583;75;28047;-61
2023/01/23 08:28:06;;;;;;;1.40;1.10;;;;;;;22.14;30.82;99880.06;1869376;75;28174;-69
2023/01/23 08:30:55;;;;;;;0.93;0.93;;;;;;;22.14;30.83;99878.17;1874354;75;28097;-69
2023/01/23 08:33:43;;;;;;;0.93;0.93;;;;;;;22.13;30.88;99879.73;1879768;75;28203;-64
2023/01/23 08:36:31;;;;;;;1.00;1.00;;;;;;;22.11;30.91;99877.76;1868623;75;28224;-64
2023/01/23 08:39:20;;;;;;;0.80;0.80;;;;;;;22.13;30.95;99876.48;1867537;76;28230;-64
2023/01/23 08:42:08;;;;;;;0.90;0.90;;;;;;;22.15;30.97;99881.75;1877668;75;28129;-66
2023/01/23 08:45:00;;;;;;;0.78;0.78;;;;;;;22.14;31.06;99877.33;1878663;75;28199;-65
2023/01/23 08:47:49;;;;;;;0.80;0.80;;;;;;;22.15;31.09;99873.55;1882918;75;28126;-64
2023/01/23 08:50:37;;;;;;;0.98;0.98;;;;;;;22.16;31.03;99871.94;1875539;75;28692;-61
2023/01/23 08:53:25;;;;;;;0.78;0.78;;;;;;;22.11;31.08;99859.98;1869986;75;28201;-61
2023/01/23 08:56:17;;;;;;;0.83;0.83;;;;;;;22.18;31.08;99873.08;1890069;75;28147;-66
2023/01/23 08:59:05;;;;;;;0.90;0.90;;;;;;;22.16;31.13;99877.94;1868719;76;28173;-64
2023/01/23 09:01:53;;;;;;;0.90;0.90;;;;;;;22.17;31.16;99881.80;1876780;75;28216;-64
2023/01/23 09:04:42;;;;;;;0.90;0.90;;;;;;;22.19;31.14;99880.23;1877243;75;28730;-64
2023/01/23 09:07:30;;;;;;;0.70;0.70;;;;;;;22.18;31.14;99881.28;1886945;75;38454;-65
2023/01/23 09:10:18;;;;;;;0.75;0.72;;;;;;;22.15;31.17;99873.55;1889254;75;28332;-65
2023/01/23 09:13:07;;;;;;;0.78;0.78;;;;;;;22.18;31.16;99868.45;1874764;75;28119;-65
2023/01/23 09:15:55;;;;;;;0.85;0.85;;;;;;;22.16;31.17;99869.73;1878980;74;28232;-65
2023/01/23 09:18:43;;;;;;;0.80;0.80;;;;;;;22.17;31.15;99870.05;1868424;76;28060;-64
2023/01/23 09:21:31;;;;;;;0.82;0.82;;;;;;;22.18;31.16;99880.77;1878055;75;28162;-64
2023/01/23 09:24:20;;;;;;;0.80;0.80;;;;;;;22.18;31.16;99886.23;1879964;75;28108;-65
2023/01/23 09:27:08;;;;;;;0.88;0.88;;;;;;;22.17;31.18;99890.02;1888728;75;28133;-54
2023/01/23 09:29:57;;;;;;;0.80;0.80;;;;;;;22.15;31.23;99885.86;1869768;75;28106;-56
2023/01/23 09:32:45;;;;;;;0.90;0.80;;;;;;;22.17;31.38;99876.89;1870881;75;28166;-55
2023/01/23 09:35:34;;;;;;;0.80;0.80;;;;;;;22.17;31.36;99876.89;1873408;75;28160;-56
2023/01/23 09:38:22;;;;;;;0.80;0.80;;;;;;;22.15;31.39;99879.83;1863590;76;28235;-58
2023/01/23 09:41:25;;;;;;;1.90;1.00;;;;;;;22.16;31.34;99869.73;1879684;75;28222;-57
2023/01/23 09:44:26;;;;;;;0.90;0.90;;;;;;;22.16;31.33;99862.89;1878934;75;28079;-55
2023/01/23 09:47:17;;;;;;;0.90;0.90;;;;;;;22.13;31.38;99861.43;1879761;75;28149;-57
2023/01/23 09:50:08;;;;;;;1.30;0.80;;;;;;;22.13;31.47;99860.59;1877719;75;28185;-56
2023/01/23 09:52:59;;;;;;;1.05;0.90;;;;;;;22.13;31.49;99853.75;1867187;76;28266;-54
2023/01/23 09:55:50;;;;;;;0.60;0.60;;;;;;;22.14;31.49;99854.07;1868676;76;28124;-58
2023/01/23 09:58:44;;;;;;;1.10;0.90;;;;;;;22.15;31.47;99846.99;1869097;76;28112;-57
2023/01/23 10:01:33;;;;;;;1.00;1.00;;;;;;;22.16;31.51;99846.47;1883758;75;28224;-57
2023/01/23 10:04:22;;;;;;;0.80;0.80;;;;;;;22.14;31.59;99848.08;1856629;77;28638;-55
2023/01/23 10:07:32;;;;;;;0.90;0.90;;;;;;;22.14;31.58;99848.59;1855958;77;28140;-56
2023/01/23 10:10:38;;;;;;;0.88;0.88;;;;;;;22.14;31.58;99848.08;1862040;74;28073;-58
2023/01/23 10:13:57;;;;;;;0.80;0.80;;;;;;;22.13;31.64;99842.80;1889192;75;28169;-57
2023/01/23 10:16:51;;;;;;;0.90;0.90;;;;;;;22.11;31.67;99843.56;1856775;77;27996;-56
2023/01/23 10:20:14;;;;;;;0.97;0.90;;;;;;;21.99;31.80;99832.50;1878375;75;28730;-56
2023/01/23 10:23:23;;;;;;;0.85;0.85;;;;;;;22.08;31.78;99836.63;1864246;75;32089;-57
2023/01/23 10:26:14;;;;;;;0.80;0.80;;;;;;;22.03;31.84;99835.94;1879412;75;28093;-58
2023/01/23 10:29:15;;;;;;;0.90;0.80;;;;;;;22.03;31.89;99834.28;1866759;75;28229;-58
2023/01/23 10:32:05;;;;;;;1.10;1.00;;;;;;;22.07;31.88;99828.66;1817647;76;28285;-69
2023/01/23 10:34:59;;;;;;;0.70;0.70;;;;;;;22.08;31.95;99830.35;1791716;79;28332;-70
2023/01/23 10:37:50;;;;;;;0.85;0.85;;;;;;;22.11;31.82;99833.98;1792098;79;28399;-69
2023/01/23 10:43:47;;;;;;;3.20;0.82;;;;;;;22.10;31.73;99838.61;1821847;78;28148;-55
2023/01/23 10:46:40;;;;;;;0.90;0.90;;;;;;;22.09;31.75;99824.64;1821740;78;28194;-72
2023/01/23 10:49:36;;;;;;;0.82;0.82;;;;;;;22.09;31.79;99821.06;1793615;79;30258;-64
2023/01/23 10:52:31;;;;;;;1.60;0.80;;;;;;;22.08;31.83;99817.48;1856593;77;28193;-61
2023/01/23 10:55:25;;;;;;;1.05;1.05;;;;;;;22.08;31.85;99820.78;1862343;75;28187;-60
2023/01/23 10:58:38;;;;;;;0.80;0.80;;;;;;;22.05;31.90;99813.85;1879297;75;28226;-60
2023/01/23 11:01:29;;;;;;;1.17;1.10;;;;;;;22.07;31.91;99819.09;1882636;75;28206;-59
2023/01/23 11:04:23;;;;;;;0.88;0.80;;;;;;;22.03;31.96;99809.95;1868706;76;28207;-59
2023/01/23 11:07:29;;;;;;;0.80;0.80;;;;;;;22.05;31.90;99802.91;1868878;76;28268;-58
2023/01/23 11:10:21;;;;;;;0.80;0.80;;;;;;;22.09;31.87;99808.75;1868764;76;28100;-61
2023/01/23 11:13:12;;;;;;;1.80;1.00;;;;;;;22.07;31.93;99802.67;1871828;75;28149;-62
2023/01/23 11:16:01;;;;;;;1.00;1.00;;;;;;;22.08;31.94;99794.78;1889965;75;28171;-61
2023/01/23 11:18:56;;;;;;;1.87;0.90;;;;;;;22.09;31.94;99793.19;1885771;75;28128;-62
2023/01/23 11:21:59;;;;;;;1.05;0.95;;;;;;;22.10;31.95;99788.55;1881358;75;28117;-61
2023/01/23 11:24:48;;;;;;;0.90;0.90;;;;;;;22.11;31.94;99786.95;1868797;75;28133;-60
2023/01/23 11:27:37;;;;;;;0.80;0.75;;;;;;;22.09;31.98;99789.08;1868723;76;28294;-61
2023/01/23 11:30:37;;;;;;;0.80;0.80;;;;;;;22.11;32.01;99784.73;1889562;75;38386;-61
2023/01/23 11:33:46;;;;;;;1.02;1.00;;;;;;;22.13;31.96;99784.83;1868699;76;28185;-61
2023/01/23 11:36:37;;;;;;;0.88;0.88;;;;;;;22.10;32.00;99785.82;1872625;75;28297;-61
2023/01/23 11:39:48;;;;;;;1.10;0.95;;;;;;;22.07;32.01;99784.37;1868590;76;28441;-60
2023/01/23 11:42:40;;;;;;;0.90;0.70;;;;;;;22.08;32.06;99783.84;1873079;75;28320;-59
2023/01/23 11:45:51;;;;;;;0.90;0.90;;;;;;;22.06;32.11;99787.30;1833610;76;28198;-59
2023/01/23 11:48:54;;;;;;;0.70;0.70;;;;;;;22.09;32.22;99778.66;1890762;75;28210;-59
2023/01/23 11:52:02;;;;;;;0.70;0.70;;;;;;;22.07;32.27;99780.27;1882942;75;28184;-60
2023/01/23 11:55:05;;;;;;;0.80;0.80;;;;;;;22.08;32.30;99773.71;1889886;75;28107;-60
2023/01/23 11:57:59;;;;;;;1.10;1.00;;;;;;;22.06;32.33;99769.52;1889881;75;28580;-58
2023/01/23 12:01:02;;;;;;;1.02;1.02;;;;;;;22.05;32.45;99759.66;1873655;75;28633;-57
2023/01/23 12:03:53;;;;;;;1.52;1.52;;;;;;;22.10;32.46;99752.98;1875482;75;28155;-59
2023/01/23 12:06:53;;;;;;;2.30;2.10;;;;;;;22.11;32.50;99765.59;1885145;75;28141;-57
2023/01/23 12:10:03;;;;;;;3.05;2.85;;;;;;;22.10;32.50;99761.20;1887751;75;28117;-58
2023/01/23 12:13:09;;;;;;;2.80;2.70;;;;;;;22.11;32.51;99761.48;1890593;75;28192;-58
2023/01/23 12:16:16;;;;;;;2.85;2.75;;;;;;;22.10;32.53;99752.44;1893203;75;28530;-58
2023/01/23 12:19:13;;;;;;;2.70;2.60;;;;;;;22.09;32.50;99754.88;1898847;75;28175;-57
2023/01/23 12:22:19;;;;;;;2.70;2.50;;;;;;;22.09;32.44;99756.77;1871989;75;28236;-55
2023/01/23 12:28:28;;;;;;;2.40;2.20;;;;;;;22.11;32.40;99755.48;1886238;75;28117;-57
2023/01/23 12:31:39;;;;;;;2.40;2.30;;;;;;;22.12;32.38;99753.59;1871950;75;28379;-59
2023/01/23 12:34:44;;;;;;;2.25;2.15;;;;;;;22.13;32.38;99753.36;1895115;75;36472;-57
2023/01/23 12:37:55;;;;;;;2.20;2.10;;;;;;;22.12;32.38;99744.02;1893870;74;28175;-57
2023/01/23 12:40:54;;;;;;;2.30;2.20;;;;;;;22.12;32.35;99745.39;1854897;76;28206;-58
2023/01/23 12:43:51;;;;;;;2.00;1.90;;;;;;;22.06;32.39;99727.13;1885797;75;28138;-58
2023/01/23 12:46:43;;;;;;;2.08;1.98;;;;;;;22.17;32.36;99718.20;1876801;75;28234;-56
2023/01/23 12:49:46;;;;;;;1.98;1.90;;;;;;;22.16;32.31;99716.51;1882784;75;28131;-58
2023/01/23 12:52:37;;;;;;;2.00;1.90;;;;;;;22.05;32.48;99722.73;1878749;75;28237;-59
2023/01/23 12:55:31;;;;;;;2.00;1.90;;;;;;;21.90;32.70;99718.45;1865017;75;28308;-56
2023/01/23 12:58:21;;;;;;;1.90;1.80;;;;;;;21.83;32.78;99705.33;1889817;74;28180;-58
2023/01/23 13:01:25;;;;;;;1.60;1.60;;;;;;;21.79;32.84;99700.02;1898510;75;28180;-58
2023/01/23 13:04:22;;;;;;;1.80;1.70;;;;;;;21.78;32.86;99704.32;1875108;75;28175;-59
2023/01/23 13:07:19;;;;;;;1.50;1.50;;;;;;;21.77;32.93;99714.45;1848616;75;28158;-57
2023/01/23 13:10:25;;;;;;;1.80;1.80;;;;;;;21.76;32.93;99704.55;1879886;75;28165;-58
2023/01/23 13:13:15;;;;;;;1.60;1.60;;;;;;;21.76;32.99;99700.45;1866431;75;28752;-58
2023/01/23 13:16:12;;;;;;;1.55;1.55;;;;;;;21.78;33.00;99707.90;1866037;75;28207;-58
2023/01/23 13:22:20;;;;;;;1.70;1.60;;;;;;;21.83;32.93;99709.44;1855192;76;28680;-59
2023/01/23 13:25:20;;;;;;;1.50;1.50;;;;;;;21.77;32.93;99691.20;1867375;75;28190;-58
2023/01/23 13:28:07;;;;;;;1.40;1.40;;;;;;;21.82;32.99;99707.75;1855284;75;28298;-56
2023/01/23 13:31:04;;;;;;;1.40;1.40;;;;;;;21.84;32.99;99708.39;1855408;76;28302;-57
2023/01/23 13:33:54;;;;;;;1.37;1.30;;;;;;;21.87;32.93;99705.21;1854642;76;28136;-56
2023/01/23 13:36:47;;;;;;;1.57;1.47;;;;;;;21.92;32.92;99716.32;1855004;75;28154;-57
2023/01/23 13:39:36;;;;;;;1.50;1.40;;;;;;;21.91;32.92;99720.11;1851428;76;28278;-58
2023/01/23 13:42:30;;;;;;;1.30;1.30;;;;;;;21.94;32.90;99726.50;1863773;75;28285;-57
2023/01/23 13:45:30;;;;;;;1.47;1.37;;;;;;;21.96;32.89;99724.93;1843254;76;28322;-56
2023/01/23 13:51:27;;;;;;;1.30;1.30;;;;;;;21.99;32.92;99715.73;1857066;75;28280;-54